Station History

Weather Underground - logo

Station Historical Data
 
Daily Summary for February 24, 2018 Units:  English    Metric   Both
« Previous Day
Next Day »
Daily Weekly Monthly Yearly Custom
  Current: High: Low: Average:
Temperature: 54.7 °F 54.7 °F 29.4 °F 37.5 °F
Dew Point: 30.8 °F 34.5 °F 26.2 °F 29.4 °F
Humidity: 40 % 89 % 40 % 75 %
Wind Speed: 2.3 mph 3.5 mph 0.0 mph 0.6 mph
Wind Gust: 2.3 mph 3.5 mph - -
Wind:NW - - West
Pressure: 30.40 in 30.47 in 30.40 in -
Precipitation: 0.00 in      
Historical Graphs
 
 
Tabular Data for February 24, 2018
Time Temperature Dew Point Pressure Wind Wind Speed Wind Gust Humidity Rainfall Rate (Hourly)
00:00 33.6 °F 29.3 °F 30.42 in Calm     84 % 0.00 in
00:05 33.7 °F 29.4 °F 30.42 in Calm     84 % 0.00 in
00:10 33.9 °F 29.3 °F 30.42 in Calm     83 % 0.00 in
00:15 33.9 °F 29.3 °F 30.43 in Calm     83 % 0.00 in
00:20 33.4 °F 29.1 °F 30.43 in Calm     84 % 0.00 in
00:25 33.1 °F 29.4 °F 30.43 in Calm     86 % 0.00 in
00:30 33.1 °F 29.4 °F 30.43 in Calm     86 % 0.00 in
00:35 33.1 °F 29.4 °F 30.44 in Calm     86 % 0.00 in
00:40 33.1 °F 29.4 °F 30.43 in Calm     86 % 0.00 in
00:45 33.1 °F 29.1 °F 30.44 in Calm     85 % 0.00 in
00:51 33.0 °F 29.0 °F 30.44 in Calm     85 % 0.00 in
00:56 32.9 °F 28.9 °F 30.43 in Calm     85 % 0.00 in
01:01 32.8 °F 28.8 °F 30.43 in Calm     85 % 0.00 in
01:06 32.7 °F 28.7 °F 30.43 in Calm     85 % 0.00 in
01:11 32.5 °F 28.5 °F 30.43 in Calm     85 % 0.00 in
01:16 32.5 °F 28.5 °F 30.43 in Calm     85 % 0.00 in
01:21 32.4 °F 28.4 °F 30.43 in Calm     85 % 0.00 in
01:26 32.3 °F 28.3 °F 30.43 in Calm     85 % 0.00 in
01:31 32.3 °F 28.6 °F 30.43 in Calm     86 % 0.00 in
01:36 32.3 °F 28.6 °F 30.43 in Calm     86 % 0.00 in
01:41 32.2 °F 28.5 °F 30.43 in Calm     86 % 0.00 in
01:46 32.2 °F 28.8 °F 30.43 in Calm     87 % 0.00 in
01:51 32.1 °F 28.7 °F 30.43 in Calm     87 % 0.00 in
01:56 32.0 °F 28.6 °F 30.43 in Calm     87 % 0.00 in
02:01 32.0 °F 28.8 °F 30.43 in Calm     88 % 0.00 in
02:06 32.2 °F 28.8 °F 30.43 in Calm     87 % 0.00 in
02:11 32.1 °F 28.7 °F 30.43 in Calm     87 % 0.00 in
02:16 32.1 °F 28.9 °F 30.43 in Calm     88 % 0.00 in
02:21 32.0 °F 28.6 °F 30.43 in Calm     87 % 0.00 in
02:26 31.8 °F 28.4 °F 30.43 in Calm     87 % 0.00 in
02:31 31.7 °F 28.6 °F 30.43 in Calm     88 % 0.00 in
02:36 31.7 °F 28.6 °F 30.43 in Calm     88 % 0.00 in
02:41 31.7 °F 28.3 °F 30.43 in Calm     87 % 0.00 in
02:46 31.7 °F 28.3 °F 30.43 in Calm     87 % 0.00 in
02:51 31.5 °F 27.8 °F 30.43 in Calm     86 % 0.00 in
02:56 31.2 °F 27.5 °F 30.43 in Calm     86 % 0.00 in
03:01 31.2 °F 27.8 °F 30.43 in Calm     87 % 0.00 in
03:06 31.2 °F 27.8 °F 30.43 in Calm     87 % 0.00 in
03:11 31.3 °F 27.9 °F 30.43 in Calm     87 % 0.00 in
03:16 31.3 °F 27.9 °F 30.43 in Calm     87 % 0.00 in
03:21 31.4 °F 28.0 °F 30.43 in Calm     87 % 0.00 in
03:26 31.2 °F 27.8 °F 30.43 in Calm     87 % 0.00 in
03:31 31.1 °F 27.7 °F 30.43 in Calm     87 % 0.00 in
03:36 30.8 °F 27.4 °F 30.43 in Calm     87 % 0.00 in
03:41 30.8 °F 27.7 °F 30.43 in Calm     88 % 0.00 in
03:46 31.0 °F 27.9 °F 30.43 in Calm     88 % 0.00 in
03:51 31.3 °F 28.2 °F 30.43 in Calm     88 % 0.00 in
03:56 31.5 °F 28.1 °F 30.43 in Calm     87 % 0.00 in
04:01 31.7 °F 28.0 °F 30.43 in NNW 1.2 mph 1.2 mph 86 % 0.00 in
04:06 31.7 °F 28.0 °F 30.43 in NNW 1.0 mph   86 % 0.00 in
04:11 31.7 °F 28.0 °F 30.44 in Calm     86 % 0.00 in
04:16 31.6 °F 27.9 °F 30.44 in Calm     86 % 0.00 in
04:21 31.2 °F 27.5 °F 30.44 in Calm     86 % 0.00 in
04:27 30.8 °F 27.1 °F 30.44 in Calm     86 % 0.00 in
04:32 30.6 °F 27.5 °F 30.44 in Calm     88 % 0.00 in
04:37 30.8 °F 27.7 °F 30.44 in Calm     88 % 0.00 in
04:42 31.0 °F 27.9 °F 30.44 in Calm     88 % 0.00 in
04:47 31.0 °F 27.6 °F 30.44 in Calm     87 % 0.00 in
04:52 31.0 °F 27.6 °F 30.44 in Calm     87 % 0.00 in
04:57 30.8 °F 27.4 °F 30.44 in Calm     87 % 0.00 in
05:02 30.6 °F 26.9 °F 30.45 in Calm     86 % 0.00 in
05:07 30.3 °F 26.9 °F 30.45 in Calm     87 % 0.00 in
05:12 30.1 °F 26.7 °F 30.45 in Calm     87 % 0.00 in
05:17 30.0 °F 26.9 °F 30.45 in Calm     88 % 0.00 in
05:22 30.0 °F 26.9 °F 30.45 in Calm     88 % 0.00 in
05:27 30.0 °F 27.2 °F 30.45 in Calm     89 % 0.00 in
05:32 30.1 °F 27.3 °F 30.45 in Calm     89 % 0.00 in
05:37 30.2 °F 27.3 °F 30.45 in Calm     89 % 0.00 in
05:42 30.1 °F 27.3 °F 30.45 in Calm     89 % 0.00 in
05:47 30.0 °F 27.2 °F 30.45 in Calm     89 % 0.00 in
05:52 29.8 °F 27.0 °F 30.45 in Calm     89 % 0.00 in
05:57 29.8 °F 27.0 °F 30.45 in Calm     89 % 0.00 in
06:02 29.6 °F 26.8 °F 30.46 in Calm     89 % 0.00 in
06:07 29.5 °F 26.7 °F 30.45 in Calm     89 % 0.00 in
06:12 29.4 °F 26.6 °F 30.45 in Calm     89 % 0.00 in
06:17 29.4 °F 26.6 °F 30.45 in Calm     89 % 0.00 in
06:22 29.5 °F 26.7 °F 30.45 in Calm     89 % 0.00 in
06:27 29.8 °F 27.0 °F 30.45 in Calm     89 % 0.00 in
06:32 29.9 °F 26.8 °F 30.45 in Calm     88 % 0.00 in
06:37 29.8 °F 26.7 °F 30.45 in Calm     88 % 0.00 in
06:42 29.6 °F 26.2 °F 30.45 in Calm     87 % 0.00 in
06:47 29.4 °F 26.3 °F 30.45 in Calm     88 % 0.00 in
06:52 29.7 °F 26.6 °F 30.45 in Calm     88 % 0.00 in
06:57 30.1 °F 27.0 °F 30.45 in Calm     88 % 0.00 in
07:02 30.4 °F 27.3 °F 30.45 in Calm     88 % 0.00 in
07:07 30.6 °F 27.2 °F 30.46 in Calm     87 % 0.00 in
07:12 31.0 °F 27.6 °F 30.46 in Calm     87 % 0.00 in
07:17 31.5 °F 27.8 °F 30.46 in Calm     86 % 0.00 in
07:23 32.1 °F 28.4 °F 30.46 in Calm     86 % 0.00 in
07:28 32.4 °F 28.4 °F 30.46 in Calm     85 % 0.00 in
07:33 32.8 °F 28.8 °F 30.47 in Calm     85 % 0.00 in
07:38 33.7 °F 29.7 °F 30.46 in Calm     85 % 0.00 in
07:43 35.7 °F 31.0 °F 30.47 in Calm     83 % 0.00 in
07:48 37.6 °F 32.0 °F 30.47 in Calm     80 % 0.00 in
07:53 38.8 °F 32.2 °F 30.46 in Calm     77 % 0.00 in
07:58 39.7 °F 32.8 °F 30.46 in Calm     76 % 0.00 in
08:03 40.7 °F 33.1 °F 30.46 in SE 1.2 mph   74 % 0.00 in
08:08 41.7 °F 34.4 °F 30.46 in Calm     75 % 0.00 in
08:13 42.5 °F 34.1 °F 30.46 in Calm     72 % 0.00 in
08:18 43.2 °F 34.1 °F 30.46 in Calm     70 % 0.00 in
08:23 44.0 °F 33.7 °F 30.46 in Calm     67 % 0.00 in
08:28 44.4 °F 34.1 °F 30.46 in Calm     67 % 0.00 in
08:33 45.2 °F 34.5 °F 30.47 in Calm     66 % 0.00 in
08:38 45.7 °F 33.0 °F 30.46 in SSE 2.3 mph 2.3 mph 61 % 0.00 in
08:43 46.3 °F 32.7 °F 30.47 in ESE 1.2 mph 1.2 mph 59 % 0.00 in
08:48 46.2 °F 32.2 °F 30.47 in South 1.0 mph 1.0 mph 58 % 0.00 in
08:53 46.7 °F 32.7 °F 30.47 in SW 1.2 mph 1.2 mph 58 % 0.00 in
08:58 46.7 °F 31.4 °F 30.47 in North 1.2 mph 1.2 mph 55 % 0.00 in
09:03 46.3 °F 32.3 °F 30.47 in NW 2.3 mph 2.3 mph 58 % 0.00 in
09:08 46.1 °F 32.1 °F 30.46 in NNW 1.2 mph 1.2 mph 58 % 0.00 in
09:13 46.2 °F 31.8 °F 30.46 in NW 2.3 mph 2.3 mph 57 % 0.00 in
09:18 45.8 °F 31.0 °F 30.46 in NW 1.0 mph 1.0 mph 56 % 0.00 in
09:23 46.1 °F 30.8 °F 30.47 in NW 2.3 mph 2.3 mph 55 % 0.00 in
09:28 46.8 °F 31.5 °F 30.47 in NNW 2.3 mph 2.3 mph 55 % 0.00 in
09:33 47.1 °F 31.3 °F 30.47 in SSE 2.3 mph 2.3 mph 54 % 0.00 in
09:38 47.8 °F 31.9 °F 30.47 in SW 3.5 mph 3.5 mph 54 % 0.00 in
09:43 47.7 °F 30.9 °F 30.46 in NW 2.3 mph 2.3 mph 52 % 0.00 in
09:48 47.7 °F 31.4 °F 30.46 in NW 2.3 mph 2.3 mph 53 % 0.00 in
09:53 48.0 °F 31.2 °F 30.46 in NW 3.5 mph 3.5 mph 52 % 0.00 in
09:58 48.5 °F 31.7 °F 30.46 in WNW 2.0 mph 2.0 mph 52 % 0.00 in
10:03 49.1 °F 32.2 °F 30.46 in SSE 1.2 mph 1.2 mph 52 % 0.00 in
10:08 49.7 °F 31.8 °F 30.46 in WNW 2.3 mph 2.3 mph 50 % 0.00 in
10:13 49.7 °F 31.8 °F 30.46 in South 2.0 mph 2.0 mph 50 % 0.00 in
10:18 50.4 °F 32.4 °F 30.45 in SSE 3.0 mph 3.0 mph 50 % 0.00 in
10:23 50.7 °F 32.2 °F 30.45 in SSE 1.2 mph 1.2 mph 49 % 0.00 in
10:28 50.8 °F 31.8 °F 30.45 in NNW 2.3 mph 2.3 mph 48 % 0.00 in
10:33 50.4 °F 31.4 °F 30.45 in West 2.3 mph 2.3 mph 48 % 0.00 in
10:38 50.1 °F 30.6 °F 30.45 in NW 2.3 mph 2.3 mph 47 % 0.00 in
10:43 50.3 °F 31.8 °F 30.44 in NW 1.2 mph 1.2 mph 49 % 0.00 in
10:48 50.9 °F 31.9 °F 30.44 in WNW 1.2 mph 1.2 mph 48 % 0.00 in
10:53 51.2 °F 32.2 °F 30.44 in SSE 2.0 mph 2.0 mph 48 % 0.00 in
10:58 52.1 °F 31.9 °F 30.44 in WSW 1.2 mph 1.2 mph 46 % 0.00 in
11:03 51.6 °F 30.4 °F 30.44 in West 2.3 mph 2.3 mph 44 % 0.00 in
11:08 51.2 °F 30.6 °F 30.43 in West 1.2 mph 1.2 mph 45 % 0.00 in
11:13 51.5 °F 31.4 °F 30.43 in WNW 3.5 mph 3.5 mph 46 % 0.00 in
11:18 52.6 °F 33.5 °F 30.42 in SSW 1.2 mph 1.2 mph 48 % 0.00 in
11:23 53.6 °F 32.8 °F 30.42 in South 3.5 mph   45 % 0.00 in
11:28 54.1 °F 32.6 °F 30.42 in NNE 2.0 mph 2.0 mph 44 % 0.00 in
11:33 53.9 °F 30.7 °F 30.42 in NNW 1.2 mph 1.4 mph 41 % 0.00 in
11:38 53.5 °F 31.0 °F 30.41 in WNW 2.3 mph 2.3 mph 42 % 0.00 in
11:43 53.9 °F 31.9 °F 30.41 in NW 2.3 mph 2.3 mph 43 % 0.00 in
11:48 53.8 °F 30.6 °F 30.41 in West 2.3 mph 2.3 mph 41 % 0.00 in
11:53 54.1 °F 30.9 °F 30.41 in WNW 2.3 mph 2.3 mph 41 % 0.00 in
11:58 54.6 °F 31.3 °F 30.41 in NNW 2.3 mph 2.3 mph 41 % 0.00 in
12:03 54.7 °F 30.8 °F 30.40 in NW 2.3 mph 2.3 mph 40 % 0.00 in
Park Place, Exeter, Tulare County, California, USA
Compliments of Weather Underground - 2 mb